sensor_id;sensor_type;location;lat;lon;timestamp;P1;durP1;ratioP1;P2;durP2;ratioP2
40256;SDS011;25977;45.462;9.210;2022-09-09T00:09:29;8.27;;;6.88;;
40256;SDS011;25977;45.462;9.210;2022-09-09T00:12:21;9.00;;;6.88;;
40256;SDS011;25977;45.462;9.210;2022-09-09T00:15:13;20.27;;;7.10;;
40256;SDS011;25977;45.462;9.210;2022-09-09T00:17:48;13.55;;;7.55;;
40256;SDS011;25977;45.462;9.210;2022-09-09T00:23:05;9.63;;;6.45;;
40256;SDS011;25977;45.462;9.210;2022-09-09T00:25:54;8.20;;;7.20;;
40256;SDS011;25977;45.462;9.210;2022-09-09T00:28:23;9.85;;;7.50;;
40256;SDS011;25977;45.462;9.210;2022-09-09T00:30:52;8.55;;;7.18;;
40256;SDS011;25977;45.462;9.210;2022-09-09T00:33:22;11.07;;;7.18;;
40256;SDS011;25977;45.462;9.210;2022-09-09T00:35:51;6.82;;;6.10;;
40256;SDS011;25977;45.462;9.210;2022-09-09T00:38:32;9.32;;;7.70;;
40256;SDS011;25977;45.462;9.210;2022-09-09T00:43:43;11.48;;;8.32;;
40256;SDS011;25977;45.462;9.210;2022-09-09T00:57:29;12.65;;;7.68;;
40256;SDS011;25977;45.462;9.210;2022-09-09T00:59:52;11.65;;;7.50;;
40256;SDS011;25977;45.462;9.210;2022-09-09T01:02:39;12.57;;;7.75;;
40256;SDS011;25977;45.462;9.210;2022-09-09T01:05:12;10.68;;;8.82;;
40256;SDS011;25977;45.462;9.210;2022-09-09T01:07:44;10.07;;;8.38;;
40256;SDS011;25977;45.462;9.210;2022-09-09T01:13:26;11.90;;;8.07;;
40256;SDS011;25977;45.462;9.210;2022-09-09T01:16:00;15.35;;;8.52;;
40256;SDS011;25977;45.462;9.210;2022-09-09T01:18:37;11.50;;;8.65;;
40256;SDS011;25977;45.462;9.210;2022-09-09T01:27:15;10.95;;;7.97;;
40256;SDS011;25977;45.462;9.210;2022-09-09T01:29:43;12.00;;;8.80;;
40256;SDS011;25977;45.462;9.210;2022-09-09T01:35:06;15.70;;;9.00;;
40256;SDS011;25977;45.462;9.210;2022-09-09T01:37:36;9.97;;;8.90;;
40256;SDS011;25977;45.462;9.210;2022-09-09T01:40:02;21.92;;;10.77;;
40256;SDS011;25977;45.462;9.210;2022-09-09T01:42:30;10.80;;;9.60;;
40256;SDS011;25977;45.462;9.210;2022-09-09T01:44:57;10.40;;;8.52;;
40256;SDS011;25977;45.462;9.210;2022-09-09T01:47:23;11.75;;;8.60;;
40256;SDS011;25977;45.462;9.210;2022-09-09T01:50:01;14.65;;;9.75;;
40256;SDS011;25977;45.462;9.210;2022-09-09T01:52:29;10.43;;;9.30;;
40256;SDS011;25977;45.462;9.210;2022-09-09T01:54:56;10.15;;;8.13;;
40256;SDS011;25977;45.462;9.210;2022-09-09T01:57:27;12.15;;;10.38;;
40256;SDS011;25977;45.462;9.210;2022-09-09T02:00:04;12.77;;;9.10;;
40256;SDS011;25977;45.462;9.210;2022-09-09T02:08:29;12.38;;;9.10;;
40256;SDS011;25977;45.462;9.210;2022-09-09T02:11:09;14.25;;;9.20;;
40256;SDS011;25977;45.462;9.210;2022-09-09T02:13:54;13.63;;;9.40;;
40256;SDS011;25977;45.462;9.210;2022-09-09T02:16:24;11.85;;;9.80;;
40256;SDS011;25977;45.462;9.210;2022-09-09T02:22:10;17.30;;;10.45;;
40256;SDS011;25977;45.462;9.210;2022-09-09T02:24:37;14.75;;;9.68;;
40256;SDS011;25977;45.462;9.210;2022-09-09T02:27:19;16.45;;;10.57;;
40256;SDS011;25977;45.462;9.210;2022-09-09T02:29:47;13.93;;;10.55;;
40256;SDS011;25977;45.462;9.210;2022-09-09T02:32:20;14.25;;;9.80;;
40256;SDS011;25977;45.462;9.210;2022-09-09T02:34:50;15.02;;;10.50;;
40256;SDS011;25977;45.462;9.210;2022-09-09T02:37:23;12.25;;;9.52;;
40256;SDS011;25977;45.462;9.210;2022-09-09T02:39:55;14.95;;;9.55;;
40256;SDS011;25977;45.462;9.210;2022-09-09T02:42:21;15.02;;;10.15;;
40256;SDS011;25977;45.462;9.210;2022-09-09T02:44:50;11.98;;;10.27;;
40256;SDS011;25977;45.462;9.210;2022-09-09T02:50:04;13.80;;;10.52;;
40256;SDS011;25977;45.462;9.210;2022-09-09T02:55:37;16.83;;;11.77;;
40256;SDS011;25977;45.462;9.210;2022-09-09T02:58:12;15.82;;;11.02;;
40256;SDS011;25977;45.462;9.210;2022-09-09T03:00:45;20.10;;;11.15;;
40256;SDS011;25977;45.462;9.210;2022-09-09T03:03:13;21.33;;;12.00;;
40256;SDS011;25977;45.462;9.210;2022-09-09T03:05:39;17.40;;;12.32;;
40256;SDS011;25977;45.462;9.210;2022-09-09T03:08:05;15.95;;;11.88;;
40256;SDS011;25977;45.462;9.210;2022-09-09T03:10:32;22.75;;;12.98;;
40256;SDS011;25977;45.462;9.210;2022-09-09T03:12:58;15.82;;;12.05;;
40256;SDS011;25977;45.462;9.210;2022-09-09T03:15:26;15.18;;;11.43;;
40256;SDS011;25977;45.462;9.210;2022-09-09T03:17:56;17.35;;;11.80;;
40256;SDS011;25977;45.462;9.210;2022-09-09T03:20:23;16.80;;;11.70;;
40256;SDS011;25977;45.462;9.210;2022-09-09T03:22:52;18.00;;;11.80;;
40256;SDS011;25977;45.462;9.210;2022-09-09T03:25:18;14.40;;;11.13;;
40256;SDS011;25977;45.462;9.210;2022-09-09T03:27:45;16.23;;;11.85;;
40256;SDS011;25977;45.462;9.210;2022-09-09T03:30:11;13.13;;;10.70;;
40256;SDS011;25977;45.462;9.210;2022-09-09T03:32:37;16.77;;;11.13;;
40256;SDS011;25977;45.462;9.210;2022-09-09T03:35:03;17.05;;;11.48;;
40256;SDS011;25977;45.462;9.210;2022-09-09T03:37:30;13.02;;;11.15;;
40256;SDS011;25977;45.462;9.210;2022-09-09T03:39:56;14.13;;;11.40;;
40256;SDS011;25977;45.462;9.210;2022-09-09T03:42:23;16.25;;;11.07;;
40256;SDS011;25977;45.462;9.210;2022-09-09T03:44:51;16.83;;;11.95;;
40256;SDS011;25977;45.462;9.210;2022-09-09T03:47:21;22.00;;;11.15;;
40256;SDS011;25977;45.462;9.210;2022-09-09T03:49:49;17.73;;;12.50;;
40256;SDS011;25977;45.462;9.210;2022-09-09T03:52:15;17.02;;;10.35;;
40256;SDS011;25977;45.462;9.210;2022-09-09T03:54:42;18.35;;;11.68;;
40256;SDS011;25977;45.462;9.210;2022-09-09T03:57:08;16.20;;;11.35;;
40256;SDS011;25977;45.462;9.210;2022-09-09T03:59:35;17.65;;;11.88;;
40256;SDS011;25977;45.462;9.210;2022-09-09T04:02:02;18.65;;;12.15;;
40256;SDS011;25977;45.462;9.210;2022-09-09T04:04:29;16.52;;;10.95;;
40256;SDS011;25977;45.462;9.210;2022-09-09T04:06:55;16.48;;;11.40;;
40256;SDS011;25977;45.462;9.210;2022-09-09T04:09:22;13.80;;;10.80;;
40256;SDS011;25977;45.462;9.210;2022-09-09T04:11:49;23.60;;;10.65;;
40256;SDS011;25977;45.462;9.210;2022-09-09T04:14:15;13.65;;;11.18;;
40256;SDS011;25977;45.462;9.210;2022-09-09T04:16:41;15.73;;;11.60;;
40256;SDS011;25977;45.462;9.210;2022-09-09T04:19:10;15.98;;;11.50;;
40256;SDS011;25977;45.462;9.210;2022-09-09T04:21:40;15.73;;;10.40;;
40256;SDS011;25977;45.462;9.210;2022-09-09T04:24:09;18.67;;;11.52;;
40256;SDS011;25977;45.462;9.210;2022-09-09T04:26:35;16.02;;;9.75;;
40256;SDS011;25977;45.462;9.210;2022-09-09T04:29:02;14.18;;;10.40;;
40256;SDS011;25977;45.462;9.210;2022-09-09T04:31:29;15.43;;;10.50;;
40256;SDS011;25977;45.462;9.210;2022-09-09T04:33:55;15.00;;;11.38;;
40256;SDS011;25977;45.462;9.210;2022-09-09T04:36:21;17.40;;;11.43;;
40256;SDS011;25977;45.462;9.210;2022-09-09T04:38:50;14.23;;;9.98;;
40256;SDS011;25977;45.462;9.210;2022-09-09T04:41:16;12.60;;;9.93;;
40256;SDS011;25977;45.462;9.210;2022-09-09T04:43:44;17.30;;;10.75;;
40256;SDS011;25977;45.462;9.210;2022-09-09T04:46:12;18.40;;;11.30;;
40256;SDS011;25977;45.462;9.210;2022-09-09T04:48:37;17.70;;;11.90;;
40256;SDS011;25977;45.462;9.210;2022-09-09T04:51:13;19.83;;;11.00;;
40256;SDS011;25977;45.462;9.210;2022-09-09T04:53:39;14.80;;;10.60;;
40256;SDS011;25977;45.462;9.210;2022-09-09T04:58:39;17.45;;;12.05;;
40256;SDS011;25977;45.462;9.210;2022-09-09T05:03:38;25.67;;;12.68;;
40256;SDS011;25977;45.462;9.210;2022-09-09T05:06:07;18.20;;;11.70;;
40256;SDS011;25977;45.462;9.210;2022-09-09T05:08:36;17.63;;;10.70;;
40256;SDS011;25977;45.462;9.210;2022-09-09T05:11:02;21.60;;;11.70;;
40256;SDS011;25977;45.462;9.210;2022-09-09T05:13:29;18.45;;;13.15;;
40256;SDS011;25977;45.462;9.210;2022-09-09T05:15:57;16.80;;;12.27;;
40256;SDS011;25977;45.462;9.210;2022-09-09T05:18:23;16.48;;;12.40;;
40256;SDS011;25977;45.462;9.210;2022-09-09T05:20:49;17.55;;;12.43;;
40256;SDS011;25977;45.462;9.210;2022-09-09T05:23:16;17.08;;;12.38;;
40256;SDS011;25977;45.462;9.210;2022-09-09T05:25:42;17.60;;;12.40;;
40256;SDS011;25977;45.462;9.210;2022-09-09T05:28:08;15.50;;;11.15;;
40256;SDS011;25977;45.462;9.210;2022-09-09T05:30:36;30.95;;;11.77;;
40256;SDS011;25977;45.462;9.210;2022-09-09T05:33:04;15.05;;;9.60;;
40256;SDS011;25977;45.462;9.210;2022-09-09T05:35:32;14.95;;;10.45;;
40256;SDS011;25977;45.462;9.210;2022-09-09T05:38:01;13.25;;;9.50;;
40256;SDS011;25977;45.462;9.210;2022-09-09T05:40:27;14.98;;;9.63;;
40256;SDS011;25977;45.462;9.210;2022-09-09T05:42:53;13.30;;;9.65;;
40256;SDS011;25977;45.462;9.210;2022-09-09T05:45:19;12.68;;;10.10;;
40256;SDS011;25977;45.462;9.210;2022-09-09T05:47:45;14.57;;;10.43;;
40256;SDS011;25977;45.462;9.210;2022-09-09T05:50:18;17.50;;;10.32;;
40256;SDS011;25977;45.462;9.210;2022-09-09T05:52:44;14.40;;;10.30;;
40256;SDS011;25977;45.462;9.210;2022-09-09T05:55:10;13.18;;;9.98;;
40256;SDS011;25977;45.462;9.210;2022-09-09T05:57:35;17.45;;;10.32;;
40256;SDS011;25977;45.462;9.210;2022-09-09T06:00:02;16.45;;;10.95;;
40256;SDS011;25977;45.462;9.210;2022-09-09T06:02:38;16.23;;;10.60;;
40256;SDS011;25977;45.462;9.210;2022-09-09T06:05:06;17.95;;;10.50;;
40256;SDS011;25977;45.462;9.210;2022-09-09T06:07:33;14.52;;;10.00;;
40256;SDS011;25977;45.462;9.210;2022-09-09T06:09:59;13.73;;;10.45;;
40256;SDS011;25977;45.462;9.210;2022-09-09T06:12:25;11.05;;;9.82;;
40256;SDS011;25977;45.462;9.210;2022-09-09T06:14:51;15.40;;;10.75;;
40256;SDS011;25977;45.462;9.210;2022-09-09T06:17:18;20.58;;;11.77;;
40256;SDS011;25977;45.462;9.210;2022-09-09T06:19:44;9.82;;;8.77;;
40256;SDS011;25977;45.462;9.210;2022-09-09T06:22:10;13.88;;;10.15;;
40256;SDS011;25977;45.462;9.210;2022-09-09T06:24:38;14.85;;;10.32;;
40256;SDS011;25977;45.462;9.210;2022-09-09T06:27:06;16.13;;;10.00;;
40256;SDS011;25977;45.462;9.210;2022-09-09T06:29:34;13.25;;;9.88;;
40256;SDS011;25977;45.462;9.210;2022-09-09T06:32:01;11.98;;;9.00;;
40256;SDS011;25977;45.462;9.210;2022-09-09T06:34:28;15.90;;;9.25;;
40256;SDS011;25977;45.462;9.210;2022-09-09T06:36:56;10.85;;;8.50;;
40256;SDS011;25977;45.462;9.210;2022-09-09T06:39:23;9.18;;;6.68;;
40256;SDS011;25977;45.462;9.210;2022-09-09T06:41:49;20.55;;;7.75;;
40256;SDS011;25977;45.462;9.210;2022-09-09T06:44:36;9.20;;;6.53;;
40256;SDS011;25977;45.462;9.210;2022-09-09T06:47:06;11.57;;;7.70;;
40256;SDS011;25977;45.462;9.210;2022-09-09T06:49:32;10.27;;;7.80;;
40256;SDS011;25977;45.462;9.210;2022-09-09T06:51:59;11.77;;;7.00;;
40256;SDS011;25977;45.462;9.210;2022-09-09T06:54:27;9.05;;;6.47;;
40256;SDS011;25977;45.462;9.210;2022-09-09T06:56:53;9.25;;;4.78;;
40256;SDS011;25977;45.462;9.210;2022-09-09T06:59:22;6.18;;;4.78;;
40256;SDS011;25977;45.462;9.210;2022-09-09T07:01:48;5.97;;;4.20;;
40256;SDS011;25977;45.462;9.210;2022-09-09T07:04:17;4.90;;;2.60;;
40256;SDS011;25977;45.462;9.210;2022-09-09T07:06:44;5.35;;;2.50;;
40256;SDS011;25977;45.462;9.210;2022-09-09T07:09:15;4.70;;;1.88;;
40256;SDS011;25977;45.462;9.210;2022-09-09T07:11:45;4.88;;;2.38;;
40256;SDS011;25977;45.462;9.210;2022-09-09T07:14:13;5.38;;;2.83;;
40256;SDS011;25977;45.462;9.210;2022-09-09T07:16:43;2.50;;;2.30;;
40256;SDS011;25977;45.462;9.210;2022-09-09T07:19:10;11.15;;;2.75;;
40256;SDS011;25977;45.462;9.210;2022-09-09T07:21:37;8.63;;;2.95;;
40256;SDS011;25977;45.462;9.210;2022-09-09T07:24:05;3.80;;;2.20;;
40256;SDS011;25977;45.462;9.210;2022-09-09T07:26:33;6.50;;;3.20;;
40256;SDS011;25977;45.462;9.210;2022-09-09T07:29:01;3.10;;;2.28;;
40256;SDS011;25977;45.462;9.210;2022-09-09T07:31:29;6.78;;;3.63;;
40256;SDS011;25977;45.462;9.210;2022-09-09T07:34:00;5.53;;;3.20;;
40256;SDS011;25977;45.462;9.210;2022-09-09T07:36:33;3.30;;;2.95;;
40256;SDS011;25977;45.462;9.210;2022-09-09T07:39:05;5.30;;;2.33;;
40256;SDS011;25977;45.462;9.210;2022-09-09T07:41:34;2.85;;;2.15;;
40256;SDS011;25977;45.462;9.210;2022-09-09T07:44:07;8.98;;;2.30;;
40256;SDS011;25977;45.462;9.210;2022-09-09T07:46:39;3.80;;;2.17;;
40256;SDS011;25977;45.462;9.210;2022-09-09T07:49:08;3.83;;;1.98;;
40256;SDS011;25977;45.462;9.210;2022-09-09T07:51:35;4.00;;;1.75;;
40256;SDS011;25977;45.462;9.210;2022-09-09T07:54:04;6.43;;;1.63;;
40256;SDS011;25977;45.462;9.210;2022-09-09T07:56:33;3.53;;;1.52;;
40256;SDS011;25977;45.462;9.210;2022-09-09T07:59:00;2.13;;;1.65;;
40256;SDS011;25977;45.462;9.210;2022-09-09T08:01:30;1.30;;;1.20;;
40256;SDS011;25977;45.462;9.210;2022-09-09T08:03:58;1.05;;;0.75;;
40256;SDS011;25977;45.462;9.210;2022-09-09T08:06:32;4.03;;;2.42;;
40256;SDS011;25977;45.462;9.210;2022-09-09T08:09:00;2.15;;;1.33;;
40256;SDS011;25977;45.462;9.210;2022-09-09T08:11:27;0.75;;;0.75;;
40256;SDS011;25977;45.462;9.210;2022-09-09T08:13:54;1.33;;;0.98;;
40256;SDS011;25977;45.462;9.210;2022-09-09T08:16:25;1.13;;;1.02;;
40256;SDS011;25977;45.462;9.210;2022-09-09T08:18:54;3.17;;;1.20;;
40256;SDS011;25977;45.462;9.210;2022-09-09T08:21:24;7.88;;;0.85;;
40256;SDS011;25977;45.462;9.210;2022-09-09T08:23:54;1.42;;;0.75;;
40256;SDS011;25977;45.462;9.210;2022-09-09T08:26:23;4.57;;;0.90;;
40256;SDS011;25977;45.462;9.210;2022-09-09T08:28:51;1.80;;;1.45;;
40256;SDS011;25977;45.462;9.210;2022-09-09T08:33:44;9.23;;;2.17;;
40256;SDS011;25977;45.462;9.210;2022-09-09T08:36:14;3.15;;;2.15;;
40256;SDS011;25977;45.462;9.210;2022-09-09T08:38:42;4.10;;;1.17;;
40256;SDS011;25977;45.462;9.210;2022-09-09T08:53:01;1.45;;;1.00;;
40256;SDS011;25977;45.462;9.210;2022-09-09T09:00:45;4.85;;;0.90;;
40256;SDS011;25977;45.462;9.210;2022-09-09T09:06:23;1.95;;;0.55;;
40256;SDS011;25977;45.462;9.210;2022-09-09T09:09:04;1.33;;;0.90;;
40256;SDS011;25977;45.462;9.210;2022-09-09T09:11:46;1.42;;;0.60;;
40256;SDS011;25977;45.462;9.210;2022-09-09T09:14:22;0.43;;;0.43;;
40256;SDS011;25977;45.462;9.210;2022-09-09T09:19:29;2.55;;;0.50;;
40256;SDS011;25977;45.462;9.210;2022-09-09T09:24:49;1.85;;;0.40;;
40256;SDS011;25977;45.462;9.210;2022-09-09T09:30:00;0.50;;;0.20;;
40256;SDS011;25977;45.462;9.210;2022-09-09T09:32:33;2.15;;;0.65;;
40256;SDS011;25977;45.462;9.210;2022-09-09T09:35:00;2.25;;;0.65;;
40256;SDS011;25977;45.462;9.210;2022-09-09T09:37:31;3.20;;;0.60;;
40256;SDS011;25977;45.462;9.210;2022-09-09T09:40:07;0.57;;;0.57;;
40256;SDS011;25977;45.462;9.210;2022-09-09T09:42:38;0.63;;;0.52;;
40256;SDS011;25977;45.462;9.210;2022-09-09T09:45:40;1.55;;;0.85;;
40256;SDS011;25977;45.462;9.210;2022-09-09T09:48:09;1.77;;;0.90;;
40256;SDS011;25977;45.462;9.210;2022-09-09T09:53:28;0.73;;;0.50;;
40256;SDS011;25977;45.462;9.210;2022-09-09T09:58:33;0.63;;;0.60;;
40256;SDS011;25977;45.462;9.210;2022-09-09T10:03:58;1.15;;;0.40;;
40256;SDS011;25977;45.462;9.210;2022-09-09T10:06:33;0.52;;;0.50;;
40256;SDS011;25977;45.462;9.210;2022-09-09T10:09:03;2.08;;;0.30;;
40256;SDS011;25977;45.462;9.210;2022-09-09T10:17:26;0.30;;;0.30;;
40256;SDS011;25977;45.462;9.210;2022-09-09T10:23:01;0.40;;;0.40;;
40256;SDS011;25977;45.462;9.210;2022-09-09T10:36:16;1.35;;;0.63;;
40256;SDS011;25977;45.462;9.210;2022-09-09T10:38:47;0.98;;;0.50;;
40256;SDS011;25977;45.462;9.210;2022-09-09T10:41:19;0.50;;;0.45;;
40256;SDS011;25977;45.462;9.210;2022-09-09T10:49:48;1.40;;;0.60;;
40256;SDS011;25977;45.462;9.210;2022-09-09T10:57:39;1.47;;;0.60;;
40256;SDS011;25977;45.462;9.210;2022-09-09T11:00:06;0.80;;;0.80;;
40256;SDS011;25977;45.462;9.210;2022-09-09T11:02:42;0.90;;;0.60;;
40256;SDS011;25977;45.462;9.210;2022-09-09T11:07:51;2.00;;;0.70;;
40256;SDS011;25977;45.462;9.210;2022-09-09T11:10:26;1.77;;;0.60;;
40256;SDS011;25977;45.462;9.210;2022-09-09T11:13:00;1.33;;;0.60;;
40256;SDS011;25977;45.462;9.210;2022-09-09T11:15:31;2.28;;;0.73;;
40256;SDS011;25977;45.462;9.210;2022-09-09T11:18:06;4.47;;;1.23;;
40256;SDS011;25977;45.462;9.210;2022-09-09T11:20:44;1.00;;;0.57;;
40256;SDS011;25977;45.462;9.210;2022-09-09T11:23:18;1.45;;;0.40;;
40256;SDS011;25977;45.462;9.210;2022-09-09T11:25:56;1.60;;;0.60;;
40256;SDS011;25977;45.462;9.210;2022-09-09T11:42:16;0.98;;;0.60;;
40256;SDS011;25977;45.462;9.210;2022-09-09T11:44:45;0.73;;;0.63;;
40256;SDS011;25977;45.462;9.210;2022-09-09T11:47:20;1.23;;;0.70;;
40256;SDS011;25977;45.462;9.210;2022-09-09T11:52:46;0.98;;;0.80;;
40256;SDS011;25977;45.462;9.210;2022-09-09T11:55:27;0.50;;;0.50;;
40256;SDS011;25977;45.462;9.210;2022-09-09T11:58:02;2.15;;;0.60;;
40256;SDS011;25977;45.462;9.210;2022-09-09T12:06:08;0.95;;;0.70;;
40256;SDS011;25977;45.462;9.210;2022-09-09T12:08:36;0.75;;;0.75;;
40256;SDS011;25977;45.462;9.210;2022-09-09T12:11:06;0.95;;;0.50;;
40256;SDS011;25977;45.462;9.210;2022-09-09T12:13:32;0.82;;;0.57;;
40256;SDS011;25977;45.462;9.210;2022-09-09T12:15:59;0.70;;;0.55;;
40256;SDS011;25977;45.462;9.210;2022-09-09T12:18:34;0.73;;;0.73;;
40256;SDS011;25977;45.462;9.210;2022-09-09T12:34:17;8.77;;;1.90;;
40256;SDS011;25977;45.462;9.210;2022-09-09T12:42:21;1.73;;;0.77;;
40256;SDS011;25977;45.462;9.210;2022-09-09T12:44:51;2.40;;;1.52;;
40256;SDS011;25977;45.462;9.210;2022-09-09T12:50:19;2.00;;;1.00;;
40256;SDS011;25977;45.462;9.210;2022-09-09T12:52:47;3.92;;;1.15;;
40256;SDS011;25977;45.462;9.210;2022-09-09T12:55:18;1.67;;;0.77;;
40256;SDS011;25977;45.462;9.210;2022-09-09T12:57:46;2.42;;;1.00;;
40256;SDS011;25977;45.462;9.210;2022-09-09T13:00:21;5.25;;;1.58;;
40256;SDS011;25977;45.462;9.210;2022-09-09T13:05:17;3.63;;;1.20;;
40256;SDS011;25977;45.462;9.210;2022-09-09T13:07:48;5.00;;;1.55;;
40256;SDS011;25977;45.462;9.210;2022-09-09T13:10:17;4.70;;;1.15;;
40256;SDS011;25977;45.462;9.210;2022-09-09T13:12:49;2.80;;;1.08;;
40256;SDS011;25977;45.462;9.210;2022-09-09T13:15:25;0.70;;;0.70;;
40256;SDS011;25977;45.462;9.210;2022-09-09T13:17:57;4.15;;;1.17;;
40256;SDS011;25977;45.462;9.210;2022-09-09T13:20:26;5.30;;;0.80;;
40256;SDS011;25977;45.462;9.210;2022-09-09T13:22:53;0.98;;;0.90;;
40256;SDS011;25977;45.462;9.210;2022-09-09T13:25:21;2.35;;;0.98;;
40256;SDS011;25977;45.462;9.210;2022-09-09T13:27:54;4.40;;;1.25;;
40256;SDS011;25977;45.462;9.210;2022-09-09T13:30:21;3.17;;;1.83;;
40256;SDS011;25977;45.462;9.210;2022-09-09T13:33:00;0.93;;;0.73;;
40256;SDS011;25977;45.462;9.210;2022-09-09T13:35:27;2.30;;;0.95;;
40256;SDS011;25977;45.462;9.210;2022-09-09T13:37:53;1.95;;;0.90;;
40256;SDS011;25977;45.462;9.210;2022-09-09T13:40:19;7.07;;;1.30;;
40256;SDS011;25977;45.462;9.210;2022-09-09T13:42:46;2.55;;;1.08;;
40256;SDS011;25977;45.462;9.210;2022-09-09T13:45:20;2.13;;;1.08;;
40256;SDS011;25977;45.462;9.210;2022-09-09T13:47:47;2.92;;;1.23;;
40256;SDS011;25977;45.462;9.210;2022-09-09T13:52:54;1.42;;;1.00;;
40256;SDS011;25977;45.462;9.210;2022-09-09T13:55:23;3.03;;;0.70;;
40256;SDS011;25977;45.462;9.210;2022-09-09T13:57:54;1.58;;;1.00;;
40256;SDS011;25977;45.462;9.210;2022-09-09T14:00:22;1.75;;;1.00;;
40256;SDS011;25977;45.462;9.210;2022-09-09T14:02:49;1.05;;;1.05;;
40256;SDS011;25977;45.462;9.210;2022-09-09T14:05:16;1.65;;;0.90;;
40256;SDS011;25977;45.462;9.210;2022-09-09T14:07:43;0.70;;;0.70;;
40256;SDS011;25977;45.462;9.210;2022-09-09T14:10:10;2.08;;;0.90;;
40256;SDS011;25977;45.462;9.210;2022-09-09T14:12:36;2.30;;;0.82;;
40256;SDS011;25977;45.462;9.210;2022-09-09T14:15:04;2.28;;;0.60;;
40256;SDS011;25977;45.462;9.210;2022-09-09T14:17:31;2.03;;;0.63;;
40256;SDS011;25977;45.462;9.210;2022-09-09T14:19:58;3.40;;;0.95;;
40256;SDS011;25977;45.462;9.210;2022-09-09T14:22:24;1.30;;;1.10;;
40256;SDS011;25977;45.462;9.210;2022-09-09T14:24:51;2.10;;;0.70;;
40256;SDS011;25977;45.462;9.210;2022-09-09T14:27:17;2.33;;;0.80;;
40256;SDS011;25977;45.462;9.210;2022-09-09T14:29:43;0.90;;;0.90;;
40256;SDS011;25977;45.462;9.210;2022-09-09T14:32:10;4.15;;;1.42;;
40256;SDS011;25977;45.462;9.210;2022-09-09T14:34:36;1.10;;;0.80;;
40256;SDS011;25977;45.462;9.210;2022-09-09T14:37:02;1.23;;;0.77;;
40256;SDS011;25977;45.462;9.210;2022-09-09T14:39:28;1.30;;;1.20;;
40256;SDS011;25977;45.462;9.210;2022-09-09T14:41:53;3.30;;;1.55;;
40256;SDS011;25977;45.462;9.210;2022-09-09T14:44:20;1.98;;;0.95;;
40256;SDS011;25977;45.462;9.210;2022-09-09T14:46:45;5.68;;;0.88;;
40256;SDS011;25977;45.462;9.210;2022-09-09T14:49:11;1.45;;;0.85;;
40256;SDS011;25977;45.462;9.210;2022-09-09T14:51:38;1.70;;;0.80;;
40256;SDS011;25977;45.462;9.210;2022-09-09T14:54:04;1.30;;;1.00;;
40256;SDS011;25977;45.462;9.210;2022-09-09T14:56:31;1.23;;;0.88;;
40256;SDS011;25977;45.462;9.210;2022-09-09T14:59:01;2.83;;;0.80;;
40256;SDS011;25977;45.462;9.210;2022-09-09T15:01:27;1.02;;;0.68;;
40256;SDS011;25977;45.462;9.210;2022-09-09T15:03:55;2.00;;;1.10;;
40256;SDS011;25977;45.462;9.210;2022-09-09T15:06:26;2.33;;;0.93;;
40256;SDS011;25977;45.462;9.210;2022-09-09T15:08:54;2.25;;;0.95;;
40256;SDS011;25977;45.462;9.210;2022-09-09T15:11:23;2.78;;;1.35;;
40256;SDS011;25977;45.462;9.210;2022-09-09T15:13:51;2.40;;;0.95;;
40256;SDS011;25977;45.462;9.210;2022-09-09T15:16:18;1.00;;;0.90;;
40256;SDS011;25977;45.462;9.210;2022-09-09T15:18:45;1.15;;;0.90;;
40256;SDS011;25977;45.462;9.210;2022-09-09T15:21:12;6.45;;;1.55;;
40256;SDS011;25977;45.462;9.210;2022-09-09T15:23:40;1.48;;;0.90;;
40256;SDS011;25977;45.462;9.210;2022-09-09T15:26:06;4.22;;;1.10;;
40256;SDS011;25977;45.462;9.210;2022-09-09T15:28:33;1.30;;;1.20;;
40256;SDS011;25977;45.462;9.210;2022-09-09T15:31:06;1.42;;;1.13;;
40256;SDS011;25977;45.462;9.210;2022-09-09T15:33:36;0.95;;;0.82;;
40256;SDS011;25977;45.462;9.210;2022-09-09T15:36:36;0.73;;;0.73;;
40256;SDS011;25977;45.462;9.210;2022-09-09T15:38:57;1.63;;;0.95;;
40256;SDS011;25977;45.462;9.210;2022-09-09T15:41:24;1.70;;;0.82;;
40256;SDS011;25977;45.462;9.210;2022-09-09T15:43:52;0.60;;;0.50;;
40256;SDS011;25977;45.462;9.210;2022-09-09T15:48:58;0.90;;;0.80;;
40256;SDS011;25977;45.462;9.210;2022-09-09T15:53:55;1.23;;;0.77;;
40256;SDS011;25977;45.462;9.210;2022-09-09T15:56:23;1.65;;;1.02;;
40256;SDS011;25977;45.462;9.210;2022-09-09T15:58:49;0.75;;;0.75;;
40256;SDS011;25977;45.462;9.210;2022-09-09T16:01:17;1.85;;;0.98;;
40256;SDS011;25977;45.462;9.210;2022-09-09T16:03:44;3.47;;;1.13;;
40256;SDS011;25977;45.462;9.210;2022-09-09T16:06:12;1.85;;;1.08;;
40256;SDS011;25977;45.462;9.210;2022-09-09T16:08:40;2.63;;;1.23;;
40256;SDS011;25977;45.462;9.210;2022-09-09T16:11:08;2.95;;;0.88;;
40256;SDS011;25977;45.462;9.210;2022-09-09T16:13:40;1.25;;;0.90;;
40256;SDS011;25977;45.462;9.210;2022-09-09T16:16:07;3.53;;;1.35;;
40256;SDS011;25977;45.462;9.210;2022-09-09T16:18:41;3.83;;;1.63;;
40256;SDS011;25977;45.462;9.210;2022-09-09T16:21:14;1.30;;;1.20;;
40256;SDS011;25977;45.462;9.210;2022-09-09T16:23:49;2.20;;;1.00;;
40256;SDS011;25977;45.462;9.210;2022-09-09T16:26:17;1.23;;;1.20;;
40256;SDS011;25977;45.462;9.210;2022-09-09T16:28:43;3.55;;;1.02;;
40256;SDS011;25977;45.462;9.210;2022-09-09T16:31:13;2.40;;;1.10;;
40256;SDS011;25977;45.462;9.210;2022-09-09T16:33:44;0.93;;;0.80;;
40256;SDS011;25977;45.462;9.210;2022-09-09T16:36:12;4.03;;;0.90;;
40256;SDS011;25977;45.462;9.210;2022-09-09T16:38:43;1.00;;;1.00;;
40256;SDS011;25977;45.462;9.210;2022-09-09T16:41:09;2.58;;;1.30;;
40256;SDS011;25977;45.462;9.210;2022-09-09T16:43:36;0.80;;;0.80;;
40256;SDS011;25977;45.462;9.210;2022-09-09T16:46:03;2.63;;;1.23;;
40256;SDS011;25977;45.462;9.210;2022-09-09T16:48:36;1.13;;;0.95;;
40256;SDS011;25977;45.462;9.210;2022-09-09T16:51:05;2.38;;;0.90;;
40256;SDS011;25977;45.462;9.210;2022-09-09T16:53:33;6.15;;;1.92;;
40256;SDS011;25977;45.462;9.210;2022-09-09T16:56:06;0.88;;;0.80;;
40256;SDS011;25977;45.462;9.210;2022-09-09T16:58:33;1.35;;;1.05;;
40256;SDS011;25977;45.462;9.210;2022-09-09T17:00:59;2.88;;;1.02;;
40256;SDS011;25977;45.462;9.210;2022-09-09T17:03:27;4.13;;;1.15;;
40256;SDS011;25977;45.462;9.210;2022-09-09T17:05:53;2.88;;;1.20;;
40256;SDS011;25977;45.462;9.210;2022-09-09T17:08:19;1.58;;;1.48;;
40256;SDS011;25977;45.462;9.210;2022-09-09T17:10:45;2.35;;;1.33;;
40256;SDS011;25977;45.462;9.210;2022-09-09T17:13:10;4.28;;;1.77;;
40256;SDS011;25977;45.462;9.210;2022-09-09T17:15:41;1.42;;;1.10;;
40256;SDS011;25977;45.462;9.210;2022-09-09T17:18:10;4.50;;;1.63;;
40256;SDS011;25977;45.462;9.210;2022-09-09T17:20:40;2.65;;;1.52;;
40256;SDS011;25977;45.462;9.210;2022-09-09T17:23:07;5.22;;;1.73;;
40256;SDS011;25977;45.462;9.210;2022-09-09T17:25:34;0.93;;;0.93;;
40256;SDS011;25977;45.462;9.210;2022-09-09T17:28:01;1.77;;;1.25;;
40256;SDS011;25977;45.462;9.210;2022-09-09T17:30:29;3.33;;;1.00;;
40256;SDS011;25977;45.462;9.210;2022-09-09T17:32:58;1.23;;;1.10;;
40256;SDS011;25977;45.462;9.210;2022-09-09T17:35:25;2.45;;;1.20;;
40256;SDS011;25977;45.462;9.210;2022-09-09T17:37:54;3.13;;;1.08;;
40256;SDS011;25977;45.462;9.210;2022-09-09T17:40:21;1.27;;;0.98;;
40256;SDS011;25977;45.462;9.210;2022-09-09T17:42:47;3.67;;;1.00;;
40256;SDS011;25977;45.462;9.210;2022-09-09T17:45:13;3.00;;;1.58;;
40256;SDS011;25977;45.462;9.210;2022-09-09T17:47:40;1.80;;;1.25;;
40256;SDS011;25977;45.462;9.210;2022-09-09T17:50:07;2.58;;;1.35;;
40256;SDS011;25977;45.462;9.210;2022-09-09T17:52:34;2.88;;;1.25;;
40256;SDS011;25977;45.462;9.210;2022-09-09T17:55:00;1.90;;;1.20;;
40256;SDS011;25977;45.462;9.210;2022-09-09T17:57:25;1.88;;;1.02;;